createdAt,value
2019-04-25T00:00:47.217Z,60.14
2019-04-25T00:03:19.889Z,57.06
2019-04-25T00:05:52.195Z,55.45
2019-04-25T00:08:23.466Z,54.30
2019-04-25T00:10:54.156Z,53.92
2019-04-25T00:13:25.355Z,53.73
2019-04-25T00:15:56.029Z,53.88
2019-04-25T00:18:26.705Z,53.91
2019-04-25T00:21:01.737Z,53.43
2019-04-25T00:23:32.604Z,53.68
2019-04-25T00:26:07.881Z,53.62
2019-04-25T00:28:38.647Z,53.37
2019-04-25T00:31:09.632Z,53.19
2019-04-25T00:33:41.998Z,53.28
2019-04-25T00:36:14.021Z,53.17
2019-04-25T00:38:47.013Z,53.19
2019-04-25T00:41:17.295Z,52.99
2019-04-25T00:43:49.605Z,52.72
2019-04-25T00:46:22.568Z,52.75
2019-04-25T00:48:53.340Z,52.11
2019-04-25T00:51:24.179Z,52.14
2019-04-25T00:53:55.079Z,51.90
2019-04-25T00:56:25.766Z,52.22
2019-04-25T00:59:02.018Z,52.19
2019-04-25T01:01:41.371Z,52.21
2019-04-25T01:04:13.676Z,51.96
2019-04-25T01:06:44.326Z,52.13
2019-04-25T01:09:18.568Z,52.13
2019-04-25T01:11:50.022Z,52.53
2019-04-25T01:14:21.814Z,52.92
2019-04-25T01:16:53.846Z,53.10
2019-04-25T01:19:25.146Z,53.05
2019-04-25T01:21:57.214Z,53.20
2019-04-25T01:24:28.520Z,53.46
2019-04-25T01:26:59.573Z,53.82
2019-04-25T01:29:30.238Z,53.77
2019-04-25T01:32:03.234Z,52.83
2019-04-25T01:34:44.177Z,52.74
2019-04-25T01:37:25.854Z,52.30
2019-04-25T01:39:58.576Z,52.62
2019-04-25T01:42:34.593Z,52.26
2019-04-25T01:45:08.421Z,53.00
2019-04-25T01:47:39.362Z,53.21
2019-04-25T01:50:10.148Z,52.82
2019-04-25T01:52:40.953Z,53.00
2019-04-25T01:55:13.436Z,53.90
2019-04-25T01:57:45.425Z,53.68
2019-04-25T02:00:19.025Z,54.08
2019-04-25T02:02:51.024Z,54.68
2019-04-25T02:05:22.022Z,54.97
2019-04-25T02:07:53.449Z,55.43
2019-04-25T02:10:25.908Z,55.67
2019-04-25T02:13:15.620Z,55.95
2019-04-25T02:15:47.387Z,56.44
2019-04-25T02:18:18.424Z,56.94
2019-04-25T02:20:49.195Z,57.14
2019-04-25T02:23:20.194Z,57.14
2019-04-25T02:26:03.431Z,57.15
2019-04-25T02:28:24.001Z,57.64
2019-04-25T02:30:58.886Z,58.33
2019-04-25T02:33:28.119Z,59.09
2019-04-25T02:36:01.048Z,59.39
2019-04-25T02:38:34.014Z,59.19
2019-04-25T02:41:08.437Z,59.90
2019-04-25T02:43:38.973Z,59.32
2019-04-25T02:46:24.808Z,60.01
2019-04-25T02:49:07.688Z,60.40
2019-04-25T02:51:37.142Z,60.26
2019-04-25T02:54:08.243Z,60.28
2019-04-25T02:56:39.361Z,60.11
2019-04-25T02:59:10.214Z,60.56
2019-04-25T03:01:41.292Z,60.42
2019-04-25T03:04:14.238Z,60.58
2019-04-25T03:06:45.178Z,61.08
2019-04-25T03:09:16.322Z,60.82
2019-04-25T03:11:47.706Z,60.90
2019-04-25T03:14:18.711Z,61.10
2019-04-25T03:16:49.392Z,61.25
2019-04-25T03:19:39.474Z,61.08
2019-04-25T03:22:15.279Z,61.08
2019-04-25T03:24:46.526Z,59.70
2019-04-25T03:27:17.299Z,59.74
2019-04-25T03:29:47.944Z,60.53
2019-04-25T03:32:20.154Z,60.19
2019-04-25T03:34:51.381Z,61.33
2019-04-25T03:37:23.420Z,61.60
2019-04-25T03:39:54.591Z,61.41
2019-04-25T03:42:25.259Z,61.76
2019-04-25T03:44:56.193Z,62.01
2019-04-25T03:47:27.123Z,62.38
2019-04-25T03:49:57.775Z,62.35
2019-04-25T03:52:29.366Z,61.32
2019-04-25T03:55:02.362Z,62.18
2019-04-25T03:57:33.567Z,61.87
2019-04-25T04:00:06.535Z,62.25
2019-04-25T04:02:38.060Z,61.71
2019-04-25T04:05:09.621Z,60.83
2019-04-25T04:07:40.349Z,60.80
2019-04-25T04:10:12.597Z,60.91
2019-04-25T04:12:44.409Z,59.82
2019-04-25T04:15:15.974Z,60.40
2019-04-25T04:17:48.694Z,60.69
2019-04-25T04:20:19.433Z,60.37
2019-04-25T04:23:07.216Z,60.44
2019-04-25T04:25:39.646Z,59.78
2019-04-25T04:28:10.324Z,59.68
2019-04-25T04:30:43.603Z,59.17
2019-04-25T04:33:26.698Z,59.63
2019-04-25T04:35:46.940Z,60.16
2019-04-25T04:38:18.122Z,61.10
2019-04-25T04:40:48.926Z,60.66
2019-04-25T04:43:19.892Z,60.94
2019-04-25T04:45:50.729Z,61.11
2019-04-25T04:48:23.166Z,60.63
2019-04-25T04:50:53.940Z,59.76
2019-04-25T04:53:24.633Z,59.12
2019-04-25T04:55:55.407Z,58.37
2019-04-25T04:58:26.486Z,58.25
2019-04-25T05:00:57.601Z,58.95
2019-04-25T05:03:46.221Z,58.72
2019-04-25T05:06:27.386Z,58.40
2019-04-25T05:08:59.735Z,57.81
2019-04-25T05:11:31.607Z,58.15
2019-04-25T05:14:03.946Z,58.00
2019-04-25T05:16:34.793Z,57.79
2019-04-25T05:19:05.879Z,57.95
2019-04-25T05:21:36.851Z,57.96
2019-04-25T05:24:08.538Z,57.39
2019-04-25T05:26:40.203Z,57.47
2019-04-25T05:29:10.955Z,57.06
2019-04-25T05:31:45.914Z,56.81
2019-04-25T05:34:17.251Z,56.81
2019-04-25T05:36:49.918Z,56.03
2019-04-25T05:39:20.615Z,55.92
2019-04-25T05:42:08.894Z,56.64
2019-04-25T05:44:39.876Z,56.03
2019-04-25T05:47:10.646Z,55.11
2019-04-25T05:49:41.649Z,54.70
2019-04-25T05:52:13.877Z,54.17
2019-04-25T05:54:45.101Z,53.01
2019-04-25T05:57:16.635Z,52.07
2019-04-25T05:59:48.336Z,51.45
2019-04-25T06:02:19.501Z,51.72
2019-04-25T06:04:50.321Z,50.48
2019-04-25T06:07:21.496Z,49.21
2019-04-25T06:09:56.942Z,48.84
2019-04-25T06:12:33.534Z,50.23
2019-04-25T06:15:07.244Z,49.62
2019-04-25T06:17:39.550Z,48.60
2019-04-25T06:20:13.427Z,48.75
2019-04-25T06:22:48.582Z,49.07
2019-04-25T06:25:21.814Z,47.11
2019-04-25T06:27:59.223Z,46.30
2019-04-25T06:30:31.722Z,46.20
2019-04-25T06:33:03.349Z,45.81
2019-04-25T06:35:35.907Z,45.57
2019-04-25T06:38:07.071Z,44.82
2019-04-25T06:40:38.006Z,45.46
2019-04-25T06:43:09.056Z,45.28
2019-04-25T06:45:41.376Z,44.15
2019-04-25T06:48:14.031Z,44.02
2019-04-25T06:50:44.758Z,43.18
2019-04-25T06:53:15.803Z,42.80
2019-04-25T06:55:47.874Z,44.38
2019-04-25T06:58:18.546Z,43.70
2019-04-25T07:00:58.006Z,43.91
2019-04-25T07:03:23.351Z,43.07
2019-04-25T07:05:55.205Z,43.02
2019-04-25T07:08:26.927Z,43.76
2019-04-25T07:10:59.338Z,42.96
2019-04-25T07:13:30.474Z,42.21
2019-04-25T07:16:03.066Z,41.83
2019-04-25T07:18:37.260Z,41.43
2019-04-25T07:21:08.610Z,40.96
2019-04-25T07:23:40.468Z,40.41
2019-04-25T07:26:13.763Z,40.55
2019-04-25T07:29:03.309Z,40.76
2019-04-25T07:31:56.898Z,41.05
2019-04-25T07:34:30.513Z,39.74
2019-04-25T07:37:03.423Z,38.37
2019-04-25T07:39:35.574Z,38.00
2019-04-25T07:42:07.260Z,37.93
2019-04-25T07:44:49.727Z,37.75
2019-04-25T07:47:10.606Z,38.17
2019-04-25T07:49:41.305Z,37.16
2019-04-25T07:52:13.604Z,36.38
2019-04-25T07:54:44.772Z,37.87
2019-04-25T07:57:15.693Z,36.04
2019-04-25T07:59:46.734Z,36.13
2019-04-25T08:02:17.419Z,35.20
2019-04-25T08:04:48.414Z,34.40
2019-04-25T08:07:19.356Z,33.50
2019-04-25T08:09:50.416Z,32.52
2019-04-25T08:12:21.773Z,32.00
2019-04-25T08:15:04.048Z,32.76
2019-04-25T08:17:45.232Z,31.29
2019-04-25T08:20:17.684Z,29.98
2019-04-25T08:22:55.705Z,29.69
2019-04-25T08:25:23.407Z,28.17
2019-04-25T08:27:55.227Z,27.83
2019-04-25T08:30:26.024Z,27.76
2019-04-25T08:32:56.772Z,27.38
2019-04-25T08:35:27.453Z,26.17
2019-04-25T08:37:58.363Z,24.82
2019-04-25T08:40:31.648Z,24.01
2019-04-25T08:43:03.527Z,24.37
2019-04-25T08:45:35.710Z,23.59
2019-04-25T08:48:07.307Z,23.05
2019-04-25T08:50:41.060Z,23.19
2019-04-25T08:53:13.650Z,21.67
2019-04-25T08:55:46.200Z,21.83
2019-04-25T08:58:36.922Z,20.61
2019-04-25T09:01:13.706Z,21.64
2019-04-25T09:03:47.365Z,21.98
2019-04-25T09:06:18.281Z,21.44
2019-04-25T09:08:49.315Z,21.81
2019-04-25T09:11:19.948Z,21.58
2019-04-25T09:13:51.637Z,20.84
2019-04-25T09:16:23.952Z,20.39
2019-04-25T09:18:54.699Z,19.06
2019-04-25T09:21:25.704Z,18.55
2019-04-25T09:23:56.397Z,18.41
2019-04-25T09:26:29.043Z,18.28
2019-04-25T09:29:16.340Z,18.31
2019-04-25T09:31:37.522Z,20.85
2019-04-25T09:34:08.627Z,18.34
2019-04-25T09:36:39.941Z,18.27
2019-04-25T09:39:13.598Z,18.22
2019-04-25T09:41:45.018Z,18.56
2019-04-25T09:44:17.606Z,17.65
2019-04-25T09:46:48.313Z,16.36
2019-04-25T09:49:20.910Z,17.17
2019-04-25T09:51:59.160Z,16.58
2019-04-25T09:54:36.154Z,16.35
2019-04-25T09:57:27.372Z,17.23
2019-04-25T09:59:58.327Z,17.16
2019-04-25T10:02:29.854Z,16.57
2019-04-25T10:05:00.840Z,16.16
2019-04-25T10:07:32.584Z,15.71
2019-04-25T10:10:03.802Z,16.50
2019-04-25T10:12:35.267Z,17.00
2019-04-25T10:15:26.193Z,16.21
2019-04-25T10:17:57.222Z,16.33
2019-04-25T10:20:27.972Z,15.62
2019-04-25T10:22:58.626Z,15.42
2019-04-25T10:25:29.717Z,16.11
2019-04-25T10:28:00.651Z,16.25
2019-04-25T10:30:31.942Z,15.34
2019-04-25T10:33:04.088Z,15.43
2019-04-25T10:35:46.697Z,14.89
2019-04-25T10:38:08.310Z,15.42
2019-04-25T10:40:39.343Z,16.58
2019-04-25T10:43:10.503Z,16.97
2019-04-25T10:45:42.346Z,17.51
2019-04-25T10:48:13.727Z,15.55
2019-04-25T10:50:45.916Z,15.02
2019-04-25T10:53:17.271Z,15.28
2019-04-25T10:55:48.560Z,13.85
2019-04-25T10:58:20.634Z,14.61
2019-04-25T11:00:53.059Z,14.25
2019-04-25T11:03:28.061Z,14.94
2019-04-25T11:05:58.786Z,15.08
2019-04-25T11:08:29.453Z,15.82
2019-04-25T11:11:00.312Z,15.26
2019-04-25T11:13:31.384Z,15.10
2019-04-25T11:16:03.490Z,14.60
2019-04-25T11:18:34.278Z,14.46
2019-04-25T11:21:06.033Z,15.31
2019-04-25T11:23:40.531Z,16.69
2019-04-25T11:26:11.503Z,16.38
2019-04-25T11:28:45.271Z,16.67
2019-04-25T11:31:17.456Z,17.85
2019-04-25T11:33:48.418Z,16.67
2019-04-25T11:36:19.067Z,15.50
2019-04-25T11:38:54.298Z,16.03
2019-04-25T11:41:25.504Z,15.94
2019-04-25T11:43:56.794Z,14.86
2019-04-25T11:46:28.463Z,12.96
2019-04-25T11:49:00.120Z,13.07
2019-04-25T11:51:31.110Z,12.96
2019-04-25T11:54:03.503Z,13.08
2019-04-25T11:56:34.556Z,14.28
2019-04-25T11:59:05.396Z,15.44
2019-04-25T12:01:36.668Z,16.28
2019-04-25T12:04:07.873Z,17.05
2019-04-25T12:06:38.562Z,18.18
2019-04-25T12:09:09.636Z,17.54
2019-04-25T12:11:41.360Z,16.89
2019-04-25T12:14:12.066Z,17.49
2019-04-25T12:16:46.150Z,16.72
2019-04-25T12:19:15.454Z,17.44
2019-04-25T12:21:46.394Z,18.17
2019-04-25T12:24:17.069Z,18.42
2019-04-25T12:26:48.718Z,18.73
2019-04-25T12:29:19.872Z,18.47
2019-04-25T12:31:50.885Z,18.57
2019-04-25T12:34:21.908Z,19.45
2019-04-25T12:36:54.425Z,20.02
2019-04-25T12:39:25.541Z,20.51
2019-04-25T12:41:57.058Z,20.83
2019-04-25T12:44:43.450Z,20.39
2019-04-25T12:47:19.112Z,20.36
2019-04-25T12:49:50.615Z,20.64
2019-04-25T12:52:21.348Z,21.05
2019-04-25T12:54:54.024Z,21.07
2019-04-25T12:57:25.013Z,21.05
2019-04-25T12:59:55.667Z,21.30
2019-04-25T13:02:26.465Z,21.32
2019-04-25T13:04:57.129Z,21.27
2019-04-25T13:07:28.078Z,21.52
2019-04-25T13:09:58.813Z,20.75
2019-04-25T13:12:29.846Z,20.88
2019-04-25T13:15:00.514Z,21.10
2019-04-25T13:17:31.723Z,20.95
2019-04-25T13:20:04.057Z,21.03
2019-04-25T13:22:35.234Z,21.18
2019-04-25T13:25:07.065Z,21.09
2019-04-25T13:27:45.408Z,21.40
2019-04-25T13:30:16.448Z,20.61
2019-04-25T13:33:05.245Z,20.14
2019-04-25T13:35:44.030Z,20.54
2019-04-25T13:38:15.093Z,20.59
2019-04-25T13:40:45.811Z,20.73
2019-04-25T13:43:16.860Z,20.32
2019-04-25T13:45:47.925Z,20.63
2019-04-25T13:48:19.877Z,20.44
2019-04-25T13:50:50.818Z,20.85
2019-04-25T13:53:21.444Z,21.15
2019-04-25T13:55:52.598Z,21.12
2019-04-25T13:58:25.485Z,20.98
2019-04-25T14:00:56.542Z,20.94
2019-04-25T14:03:29.415Z,21.31
2019-04-25T14:06:00.060Z,20.83
2019-04-25T14:08:31.524Z,20.39
2019-04-25T14:11:04.940Z,20.57
2019-04-25T14:13:35.128Z,20.39
2019-04-25T14:16:09.483Z,20.38
2019-04-25T14:18:57.951Z,20.57
2019-04-25T14:21:29.281Z,20.31
2019-04-25T14:24:00.104Z,20.79
2019-04-25T14:26:31.485Z,20.84
2019-04-25T14:29:04.122Z,20.53
2019-04-25T14:31:44.903Z,20.66
2019-04-25T14:34:07.988Z,20.90
2019-04-25T14:36:38.991Z,20.66
2019-04-25T14:39:11.381Z,21.01
2019-04-25T14:41:42.285Z,20.50
2019-04-25T14:44:13.286Z,20.61
2019-04-25T14:46:44.430Z,20.58
2019-04-25T14:49:15.122Z,20.79
2019-04-25T14:51:46.202Z,20.79
2019-04-25T14:54:18.541Z,20.96
2019-04-25T14:56:50.848Z,21.21
2019-04-25T14:59:23.037Z,21.33
2019-04-25T15:01:54.044Z,21.26
2019-04-25T15:04:24.714Z,21.23
2019-04-25T15:06:55.718Z,20.95
2019-04-25T15:09:26.859Z,20.97
2019-04-25T15:11:57.905Z,20.94
2019-04-25T15:14:29.297Z,21.14
2019-04-25T15:17:00.008Z,21.19
2019-04-25T15:19:31.867Z,21.35
2019-04-25T15:22:02.776Z,21.89
2019-04-25T15:24:34.702Z,21.65
2019-04-25T15:27:06.207Z,21.25
2019-04-25T15:29:36.914Z,21.16
2019-04-25T15:32:09.525Z,21.36
2019-04-25T15:34:42.090Z,21.24
2019-04-25T15:37:14.700Z,21.38
2019-04-25T15:39:50.207Z,22.78
2019-04-25T15:42:22.517Z,21.50
2019-04-25T15:45:10.650Z,21.73
2019-04-25T15:47:41.666Z,22.10
2019-04-25T15:50:13.008Z,22.77
2019-04-25T15:52:44.982Z,22.52
2019-04-25T15:55:16.131Z,22.69
2019-04-25T15:57:47.161Z,22.64
2019-04-25T16:00:20.538Z,22.82
2019-04-25T16:02:51.494Z,23.04
2019-04-25T16:05:22.441Z,23.35
2019-04-25T16:07:54.500Z,23.62
2019-04-25T16:10:25.842Z,23.68
2019-04-25T16:12:56.787Z,23.35
2019-04-25T16:15:27.835Z,23.55
2019-04-25T16:17:58.762Z,23.66
2019-04-25T16:20:29.575Z,24.00
2019-04-25T16:23:00.381Z,24.24
2019-04-25T16:25:33.317Z,25.65
2019-04-25T16:28:04.595Z,27.66
2019-04-25T16:30:36.487Z,28.02
2019-04-25T16:33:07.447Z,27.93
2019-04-25T16:35:38.104Z,28.61
2019-04-25T16:38:10.070Z,28.72
2019-04-25T16:40:40.757Z,29.11
2019-04-25T16:43:13.771Z,29.72
2019-04-25T16:45:46.328Z,30.00
2019-04-25T16:48:19.557Z,30.33
2019-04-25T16:50:50.225Z,30.55
2019-04-25T16:53:21.243Z,30.33
2019-04-25T16:55:51.912Z,29.98
2019-04-25T16:58:23.413Z,30.09
2019-04-25T17:00:55.822Z,30.22
2019-04-25T17:03:31.214Z,29.81
2019-04-25T17:06:02.201Z,29.69
2019-04-25T17:08:33.220Z,29.96
2019-04-25T17:11:04.674Z,30.12
2019-04-25T17:13:37.907Z,30.19
2019-04-25T17:16:13.031Z,30.53
2019-04-25T17:18:54.386Z,30.75
2019-04-25T17:21:25.434Z,31.08
2019-04-25T17:23:57.218Z,31.15
2019-04-25T17:26:28.417Z,31.39
2019-04-25T17:29:00.742Z,31.70
2019-04-25T17:31:45.277Z,31.39
2019-04-25T17:34:35.104Z,31.68
2019-04-25T17:37:14.785Z,31.93
2019-04-25T17:39:47.557Z,31.94
2019-04-25T17:42:19.081Z,32.25
2019-04-25T17:44:49.888Z,32.29
2019-04-25T17:47:22.937Z,32.52
2019-04-25T17:49:55.044Z,32.69
2019-04-25T17:52:26.026Z,33.12
2019-04-25T17:54:58.322Z,33.22
2019-04-25T17:57:29.343Z,33.46
2019-04-25T18:00:00.861Z,33.40
2019-04-25T18:02:35.019Z,33.81
2019-04-25T18:05:06.629Z,34.14
2019-04-25T18:07:39.042Z,34.23
2019-04-25T18:10:16.416Z,34.56
2019-04-25T18:12:47.481Z,34.58
2019-04-25T18:15:22.107Z,34.74
2019-04-25T18:17:52.963Z,35.00
2019-04-25T18:20:26.463Z,35.24
2019-04-25T18:23:01.773Z,35.43
2019-04-25T18:25:35.926Z,35.64
2019-04-25T18:28:14.929Z,35.63
2019-04-25T18:30:47.292Z,35.94
2019-04-25T18:33:20.485Z,36.32
2019-04-25T18:36:09.148Z,36.55
2019-04-25T18:38:50.552Z,37.05
2019-04-25T18:41:23.137Z,37.21
2019-04-25T18:43:55.742Z,37.51
2019-04-25T18:46:31.023Z,37.83
2019-04-25T18:49:02.066Z,38.04
2019-04-25T18:51:33.205Z,38.38
2019-04-25T18:54:10.104Z,38.70
2019-04-25T18:56:59.195Z,38.73
2019-04-25T18:59:44.053Z,39.01
2019-04-25T19:02:29.739Z,39.12
2019-04-25T19:05:14.551Z,39.25
2019-04-25T19:07:45.620Z,39.24
2019-04-25T19:10:16.503Z,40.16
2019-04-25T19:12:47.581Z,40.13
2019-04-25T19:15:18.384Z,40.45
2019-04-25T19:17:49.366Z,40.47
2019-04-25T19:20:20.708Z,40.79
2019-04-25T19:22:52.643Z,41.30
2019-04-25T19:25:23.822Z,41.59
2019-04-25T19:27:54.843Z,41.30
2019-04-25T19:30:26.209Z,41.19
2019-04-25T19:32:56.882Z,41.04
2019-04-25T19:35:27.879Z,40.68
2019-04-25T19:37:59.171Z,39.40
2019-04-25T19:40:37.329Z,39.94
2019-04-25T19:43:09.938Z,39.79
2019-04-25T19:45:41.023Z,39.57
2019-04-25T19:48:13.027Z,39.35
2019-04-25T19:50:43.735Z,39.21
2019-04-25T19:53:14.798Z,39.77
2019-04-25T19:55:45.527Z,40.37
2019-04-25T19:58:17.490Z,41.25
2019-04-25T20:00:51.235Z,41.94
2019-04-25T20:03:26.658Z,42.46
2019-04-25T20:06:01.914Z,42.81
2019-04-25T20:08:39.782Z,42.42
2019-04-25T20:11:28.431Z,42.80
2019-04-25T20:13:59.349Z,43.55
2019-04-25T20:16:31.929Z,43.89
2019-04-25T20:19:02.873Z,44.13
2019-04-25T20:21:34.358Z,43.98
2019-04-25T20:24:06.232Z,44.16
2019-04-25T20:26:36.964Z,43.92
2019-04-25T20:29:07.636Z,44.03
2019-04-25T20:31:38.677Z,44.32
2019-04-25T20:34:09.628Z,44.35
2019-04-25T20:36:40.688Z,45.12
2019-04-25T20:39:11.817Z,45.22
2019-04-25T20:41:43.894Z,45.47
2019-04-25T20:44:14.668Z,45.83
2019-04-25T20:46:46.675Z,45.90
2019-04-25T20:49:17.796Z,45.55
2019-04-25T20:51:48.513Z,45.67
2019-04-25T20:54:20.326Z,46.00
2019-04-25T20:56:51.087Z,46.25
2019-04-25T20:59:21.751Z,46.56
2019-04-25T21:01:53.561Z,47.04
2019-04-25T21:04:26.137Z,47.42
2019-04-25T21:06:57.178Z,48.07
2019-04-25T21:09:28.743Z,48.65
2019-04-25T21:11:59.783Z,48.96
2019-04-25T21:14:35.107Z,49.25
2019-04-25T21:17:09.991Z,49.64
2019-04-25T21:19:45.253Z,49.87
2019-04-25T21:22:16.220Z,50.05
2019-04-25T21:24:47.884Z,50.30
2019-04-25T21:27:18.916Z,50.58
2019-04-25T21:29:49.632Z,50.68
2019-04-25T21:32:22.020Z,50.89
2019-04-25T21:34:53.115Z,51.22
2019-04-25T21:37:24.342Z,51.64
2019-04-25T21:39:57.364Z,51.53
2019-04-25T21:42:42.734Z,51.63
2019-04-25T21:45:15.565Z,51.64
2019-04-25T21:47:46.703Z,51.66
2019-04-25T21:50:17.986Z,51.98
2019-04-25T21:52:49.295Z,51.88
2019-04-25T21:55:20.277Z,51.71
2019-04-25T21:57:51.261Z,51.60
2019-04-25T22:00:40.852Z,51.37
2019-04-25T22:03:14.049Z,52.20
2019-04-25T22:05:45.265Z,52.37
2019-04-25T22:08:15.944Z,52.73
2019-04-25T22:10:47.768Z,52.66
2019-04-25T22:13:19.402Z,52.31
2019-04-25T22:15:50.471Z,52.28
2019-04-25T22:18:21.726Z,52.33
2019-04-25T22:20:52.395Z,53.64
2019-04-25T22:23:23.137Z,54.17
2019-04-25T22:25:54.441Z,53.83
2019-04-25T22:28:25.350Z,53.98
2019-04-25T22:30:59.104Z,53.94
2019-04-25T22:33:31.741Z,54.48
2019-04-25T22:36:06.622Z,54.68
2019-04-25T22:38:37.638Z,54.47
2019-04-25T22:41:08.706Z,54.96
2019-04-25T22:43:41.608Z,54.47
2019-04-25T22:46:25.231Z,55.13
2019-04-25T22:48:50.347Z,54.91
2019-04-25T22:51:21.354Z,54.81
2019-04-25T22:53:53.744Z,55.12
2019-04-25T22:56:24.665Z,54.94
2019-04-25T22:58:55.566Z,55.12
2019-04-25T23:01:28.478Z,55.11
2019-04-25T23:04:01.149Z,55.07
2019-04-25T23:06:33.227Z,55.08
2019-04-25T23:09:06.127Z,55.04
2019-04-25T23:11:38.632Z,55.00
2019-04-25T23:14:10.681Z,54.64
2019-04-25T23:16:41.877Z,54.89
2019-04-25T23:19:13.420Z,54.94
2019-04-25T23:21:44.334Z,54.23
2019-04-25T23:24:16.644Z,54.35
2019-04-25T23:26:58.210Z,53.85
2019-04-25T23:29:28.920Z,54.45
2019-04-25T23:31:59.595Z,54.02
2019-04-25T23:34:30.546Z,54.47
2019-04-25T23:37:01.223Z,54.72
2019-04-25T23:39:32.055Z,54.57
2019-04-25T23:42:02.721Z,55.07
2019-04-25T23:44:33.500Z,55.09
2019-04-25T23:47:04.183Z,55.23
2019-04-25T23:49:35.155Z,55.49
2019-04-25T23:52:07.271Z,55.57
2019-04-25T23:54:38.036Z,55.51
2019-04-25T23:57:09.441Z,55.60
2019-04-25T23:59:40.403Z,55.84
